Bowlegs, Oklahoma
Current Conditions -  °F | °C
As of 11:35 AM on Thursday 30 Oct 2014 (Local Time) from KADH Reporting Station
Clear Clear  
Wind Chill: 70°   Ceiling: Unl
Heat Index: 70°   Visibility: 10mi
Dew Point: 50°   Wind: 8mph
Humidity: 49%   Direction: 230°SW
Pressure: 30.15"   Gusts: NA
Location:  35.15°N, 96.67°W
Report Text: KADH 301635Z AUTO 23007KT 10SM CLR 21/10 A3015 RMK AO2
Loading
Personal Weather Stations






























Interactive Weather Map
Tropical Storm Tracking
New forecast layout! Learn more

10-Day Weather Forecast

Advertisements
Track Severe Weather on mobile